Terminal Aerodrome Forecast
Issued by NWS

Home | Current Version | Previous Version | Text Only | Print | Product List | Glossary On
Versions: 1 2 3 4 5 6 7 8 9 10 11 12
080
FTUS41 KPBZ 230525
TAFDUJ
TAF
KDUJ 230525Z 2306/2406 10007KT P6SM SKC
     FM231500 13010KT P6SM SCT250
     FM240300 13007KT P6SM BKN250=

USA.gov is the U.S. government's official web portal to all federal, state and local government web resources and services.